Sainte-Claire, Canada
Current Conditions -  °F | °C
As of 4:00 PM on Thursday 23 Oct 2014 (Local Time) from CYQB Reporting Station
Rain Showers Rain Showers  
Wind Chill: 37°   Ceiling: 8600
Heat Index: 45°   Visibility: 15mi
Dew Point: 39°   Wind: 16mph
Humidity: 81%   Direction: 60°ENE
Pressure: 30.05"   Gusts: 23mph
Location:  46.6°N, 70.85°W
Report Text: CYQB 232000Z 06014G20KT 15SM -SHRA FEW025 OVC086 07/04 A3005 RMK SC1AC8 SC TR SLP179
Loading
Personal Weather Stations






























Interactive Weather Map
Tropical Storm Tracking
New forecast layout! Learn more

10-Day Weather Forecast

Advertisements
Track Severe Weather on mobile